Time;durP1;ratioP1;P1;durP2;ratioP2;P2;SDS_P1;SDS_P2;PMS_P1;PMS_P2;Temp;Humidity;BMP_temperature;BMP_pressure;BME280_temperature;BME280_humidity;BME280_pressure;Samples;Min_cycle;Max_cycle;Signal;HPM_P1;HPM_P2
2022/03/07 00:01:50;;;;;;;;;65.00;52.75;;;;;19.06;21.35;101798.84;5098167;27;46521;-75
2022/03/07 00:04:17;;;;;;;;;67.00;53.50;;;;;18.92;21.37;101785.38;5098087;27;45500;-75
2022/03/07 00:06:49;;;;;;;;;68.25;51.75;;;;;18.73;21.74;101773.66;5098361;27;45544;-75
2022/03/07 00:09:15;;;;;;;;;70.00;53.00;;;;;18.83;21.81;101780.84;5098090;27;45600;-76
2022/03/07 00:11:41;;;;;;;;;62.00;47.75;;;;;18.76;21.71;101787.13;5098035;27;46309;-76
2022/03/07 00:14:06;;;;;;;;;62.00;50.00;;;;;18.75;21.69;101804.16;5097627;27;45409;-76
2022/03/07 00:16:32;;;;;;;;;64.50;52.00;;;;;18.43;22.05;101745.84;5097705;27;45328;-75
2022/03/07 00:18:58;;;;;;;;;67.00;54.00;;;;;18.70;21.74;101779.03;5098092;27;45406;-75
2022/03/07 00:21:23;;;;;;;;;65.75;51.75;;;;;18.60;21.80;101753.94;5097151;27;45548;-75
2022/03/07 00:23:49;;;;;;;;;68.75;54.75;;;;;18.77;22.07;101788.91;5079479;27;45456;-76
2022/03/07 00:26:16;;;;;;;;;62.50;51.50;;;;;18.77;21.94;101791.59;5098162;27;45694;-75
2022/03/07 00:28:43;;;;;;;;;66.00;51.50;;;;;18.76;21.80;101794.28;5097421;27;45486;-76
2022/03/07 00:31:08;;;;;;;;;62.75;51.25;;;;;18.64;22.08;101770.97;5097632;27;46544;-75
2022/03/07 00:33:34;;;;;;;;;68.00;54.25;;;;;18.79;21.44;101792.50;5096551;27;45397;-75
2022/03/07 00:35:59;;;;;;;;;65.75;50.00;;;;;18.86;21.92;101802.38;5097102;27;45449;-75
2022/03/07 00:38:25;;;;;;;;;58.75;47.25;;;;;18.67;21.98;101784.41;5080381;27;45401;-75
2022/03/07 00:40:50;;;;;;;;;67.75;55.25;;;;;18.60;22.31;101790.66;5077201;28;45613;-75
2022/03/07 00:43:21;;;;;;;;;66.75;51.25;;;;;18.67;21.85;101800.53;5076946;28;45588;-75
2022/03/07 00:45:49;;;;;;;;;68.75;52.25;;;;;18.78;22.27;101801.44;5077222;28;45239;-75
2022/03/07 00:48:16;;;;;;;;;69.00;53.50;;;;;18.30;21.85;101739.53;5058752;28;45515;-75
2022/03/07 00:50:45;;;;;;;;;69.25;53.50;;;;;18.56;22.29;101800.50;5076713;28;45385;-75
2022/03/07 00:53:17;;;;;;;;;62.00;49.75;;;;;18.55;22.20;101798.72;5076791;28;45301;-75
2022/03/07 00:55:43;;;;;;;;;69.00;53.00;;;;;18.48;21.97;101784.38;5076740;28;45479;-75
2022/03/07 00:58:09;;;;;;;;;59.50;48.75;;;;;18.47;22.19;101787.94;5076345;27;45537;-75
2022/03/07 01:00:36;;;;;;;;;64.75;51.00;;;;;18.60;22.16;101805.00;5076645;28;45365;-75
2022/03/07 01:03:02;;;;;;;;;65.00;52.25;;;;;18.58;22.10;101798.72;5076711;28;45401;-75
2022/03/07 01:05:27;;;;;;;;;70.75;55.00;;;;;18.42;22.23;101778.97;5076749;28;45363;-75
2022/03/07 01:07:53;;;;;;;;;63.00;50.75;;;;;18.31;21.88;101760.16;5075170;28;45491;-75
2022/03/07 01:10:18;;;;;;;;;66.75;53.25;;;;;18.37;22.05;101783.44;5076469;28;45382;-75
2022/03/07 01:12:44;;;;;;;;;62.50;48.75;;;;;18.44;22.26;101795.13;5076442;28;45213;-74
2022/03/07 01:15:10;;;;;;;;;66.75;52.00;;;;;18.28;22.32;101767.28;5076657;28;45271;-75
2022/03/07 01:17:36;;;;;;;;;68.25;51.75;;;;;18.42;22.15;101788.81;5058232;28;45357;-75
2022/03/07 01:20:05;;;;;;;;;54.50;46.25;;;;;18.42;21.99;101788.81;5076130;28;46314;-75
2022/03/07 01:22:30;;;;;;;;;63.25;51.50;;;;;18.48;22.28;101789.75;5076058;28;45506;-75
2022/03/07 01:24:55;;;;;;;;;60.25;48.25;;;;;18.43;22.23;101780.75;5076398;28;45908;-75
2022/03/07 01:27:21;;;;;;;;;63.75;49.75;;;;;18.44;22.01;101796.00;5057932;28;45707;-75
2022/03/07 01:29:49;;;;;;;;;59.50;47.25;;;;;18.33;22.11;101782.53;5076309;28;45419;-75
2022/03/07 01:32:14;;;;;;;;;61.00;48.50;;;;;18.23;22.14;101777.13;5075827;28;45481;-75
2022/03/07 01:34:40;;;;;;;;;63.00;52.00;;;;;18.12;22.24;101761.84;5057671;28;45989;-75
2022/03/07 01:37:05;;;;;;;;;58.50;45.50;;;;;17.99;22.34;101744.81;5076399;28;45389;-75
2022/03/07 01:39:31;;;;;;;;;57.75;48.50;;;;;18.18;22.42;101769.03;5075811;28;46084;-74
2022/03/07 01:41:56;;;;;;;;;60.75;48.75;;;;;18.16;22.25;101782.47;5076195;28;45521;-75
2022/03/07 01:44:25;;;;;;;;;63.75;50.75;;;;;18.24;22.32;101795.03;5076091;28;45363;-75
2022/03/07 01:46:51;;;;;;;;;60.75;50.50;;;;;18.08;22.25;101776.16;5076043;27;45450;-75
2022/03/07 01:49:18;;;;;;;;;63.00;50.25;;;;;18.15;22.55;101791.41;5076008;28;46150;-75
2022/03/07 01:51:45;;;;;;;;;63.00;49.50;;;;;18.04;22.34;101768.97;5076048;28;45343;-75
2022/03/07 01:54:14;;;;;;;;;59.75;45.50;;;;;18.05;22.54;101770.78;5075881;28;45380;-75
2022/03/07 01:56:42;;;;;;;;;62.25;51.00;;;;;17.91;22.46;101759.09;5075526;28;45239;-75
2022/03/07 01:59:11;;;;;;;;;63.50;49.50;;;;;17.97;22.59;101760.03;5075844;28;45497;-75
2022/03/07 02:01:37;;;;;;;;;54.75;45.00;;;;;17.95;22.72;101772.53;5075700;28;45435;-75
2022/03/07 02:04:02;;;;;;;;;58.50;45.50;;;;;17.90;22.76;101776.06;5075799;28;45410;-74
2022/03/07 02:06:28;;;;;;;;;59.25;45.50;;;;;17.65;22.67;101741.94;5075703;28;45406;-75
2022/03/07 02:08:55;;;;;;;;;62.50;48.25;;;;;17.74;22.85;101767.91;5075501;28;46412;-75
2022/03/07 02:11:21;;;;;;;;;59.25;49.50;;;;;17.72;22.34;101764.34;5075787;28;45942;-75
2022/03/07 02:13:46;;;;;;;;;55.50;46.00;;;;;17.70;22.95;101746.44;5075731;28;45426;-75
2022/03/07 02:16:14;;;;;;;;;48.25;45.00;;;;;17.64;22.94;101736.56;5075633;28;45493;-75
2022/03/07 02:18:40;;;;;;;;;56.75;46.25;;;;;17.56;22.76;101735.63;5075289;28;45751;-74
2022/03/07 02:21:24;;;;;;;;;55.75;43.50;;;;;17.56;23.12;101740.97;5075693;28;45430;-75
2022/03/07 02:23:49;;;;;;;;;51.25;43.50;;;;;17.63;22.68;101741.00;5075358;28;45395;-75
2022/03/07 02:26:18;;;;;;;;;63.25;50.50;;;;;17.79;22.92;101758.09;5075596;28;45438;-74
2022/03/07 02:28:46;;;;;;;;;59.50;45.25;;;;;17.63;22.82;101742.81;5075541;28;45456;-74
2022/03/07 02:31:16;;;;;;;;;58.25;46.50;;;;;17.69;22.89;101732.09;5075580;28;45206;-75
2022/03/07 02:33:41;;;;;;;;;57.00;46.50;;;;;17.64;23.00;101733.88;5075575;28;45506;-75
2022/03/07 02:36:07;;;;;;;;;57.50;46.00;;;;;17.66;22.84;101734.75;5075299;28;45951;-75
2022/03/07 02:38:33;;;;;;;;;60.75;45.00;;;;;17.66;22.84;101729.41;5074925;28;46497;-75
2022/03/07 02:40:59;;;;;;;;;45.33;41.00;;;;;17.72;22.69;101729.44;5057203;28;45522;-75
2022/03/07 02:43:24;;;;;;;;;56.50;45.00;;;;;17.72;22.79;101731.22;5075547;28;45438;-75
2022/03/07 02:45:51;;;;;;;;;59.75;47.75;;;;;17.69;22.56;101726.72;5078905;27;45519;-75
2022/03/07 02:48:19;;;;;;;;;57.00;43.00;;;;;17.73;22.64;101728.53;5081068;27;47182;-75
2022/03/07 02:50:46;;;;;;;;;59.25;44.50;;;;;17.62;22.54;101714.16;5080871;27;45592;-75
2022/03/07 02:53:12;;;;;;;;;66.75;52.50;;;;;17.68;22.98;101722.28;5099166;27;45379;-75
2022/03/07 02:55:37;;;;;;;;;48.50;42.25;;;;;17.49;23.01;101703.41;5098840;27;45461;-75
2022/03/07 02:58:03;;;;;;;;;53.50;44.25;;;;;17.62;22.85;101723.13;5098865;27;45999;-75
2022/03/07 03:00:29;;;;;;;;;53.00;45.25;;;;;17.66;22.77;101724.94;5098639;27;45424;-74
2022/03/07 03:02:55;;;;;;;;;58.00;45.50;;;;;17.49;23.01;101708.75;5099255;27;45302;-74
2022/03/07 03:05:20;;;;;;;;;62.00;48.25;;;;;17.35;22.93;101693.47;5099149;27;45264;-75
2022/03/07 03:07:47;;;;;;;;;48.50;41.50;;;;;17.33;23.02;101714.91;5098553;27;46190;-74
2022/03/07 03:10:13;;;;;;;;;57.75;42.75;;;;;17.38;23.09;101715.81;5080747;27;45574;-75
2022/03/07 03:12:38;;;;;;;;;62.00;47.75;;;;;17.47;23.05;101707.84;5098967;27;45320;-75
2022/03/07 03:15:04;;;;;;;;;57.25;44.75;;;;;17.36;22.96;101701.50;5098707;27;45430;-75
2022/03/07 03:17:29;;;;;;;;;48.25;40.00;;;;;17.35;23.03;101718.50;5098984;27;46504;-75
2022/03/07 03:19:54;;;;;;;;;48.75;45.00;;;;;17.21;23.09;101701.41;5099082;27;45414;-75
2022/03/07 03:22:20;;;;;;;;;59.00;45.50;;;;;17.17;23.04;101694.22;5098835;27;45385;-75
2022/03/07 03:24:47;;;;;;;;;49.25;41.50;;;;;17.31;23.16;101724.72;5090687;27;45653;-75
2022/03/07 03:27:12;;;;;;;;;56.25;44.00;;;;;17.10;23.23;101704.94;5078319;28;46639;-75
2022/03/07 03:29:38;;;;;;;;;52.50;45.75;;;;;17.11;23.24;101706.69;5078184;28;45458;-75
2022/03/07 03:32:04;;;;;;;;;55.00;42.50;;;;;17.20;23.49;101702.28;5078441;28;45525;-75
2022/03/07 03:34:30;;;;;;;;;47.00;42.00;;;;;17.17;22.94;101704.97;5076812;28;45445;-74
2022/03/07 03:36:55;;;;;;;;;53.75;41.75;;;;;17.14;23.21;101704.06;5077876;28;46034;-75
2022/03/07 03:39:20;;;;;;;;;46.00;41.00;;;;;17.12;23.20;101716.56;5076884;28;45513;-75
2022/03/07 03:41:46;;;;;;;;;57.00;44.33;;;;;17.19;23.35;101727.34;5078028;28;45353;-75
2022/03/07 03:44:11;;;;;;;;;56.50;44.00;;;;;17.12;23.35;101713.88;5078285;28;45272;-75
2022/03/07 03:46:37;;;;;;;;;55.75;46.25;;;;;17.24;23.18;101714.84;5077645;28;46088;-75
2022/03/07 03:49:03;;;;;;;;;53.67;42.33;;;;;17.22;23.22;101724.69;5078041;28;45521;-75
2022/03/07 03:51:29;;;;;;;;;56.00;45.75;;;;;17.25;23.53;101730.06;5077690;28;45389;-76
2022/03/07 03:53:55;;;;;;;;;50.00;43.50;;;;;17.18;22.94;101712.13;5077717;28;45616;-75
2022/03/07 03:56:20;;;;;;;;;44.67;38.00;;;;;17.34;23.00;101723.84;5077087;28;45472;-76
2022/03/07 03:58:46;;;;;;;;;47.75;42.00;;;;;17.33;23.26;101731.00;5077554;28;45509;-75
2022/03/07 04:01:11;;;;;;;;;57.00;46.75;;;;;17.24;23.13;101726.47;5078139;28;45847;-75
2022/03/07 04:03:37;;;;;;;;;50.25;43.00;;;;;17.08;23.41;101728.13;5077735;28;45474;-75
2022/03/07 04:06:04;;;;;;;;;49.67;38.33;;;;;17.01;23.18;101712.00;5077458;28;45369;-75
2022/03/07 04:08:30;;;;;;;;;48.00;40.67;;;;;17.08;23.32;101713.84;5077514;28;45407;-76
2022/03/07 04:10:55;;;;;;;;;48.67;39.00;;;;;17.07;23.35;101720.97;5077922;28;45240;-75
2022/03/07 04:13:21;;;;;;;;;51.33;43.33;;;;;17.07;23.20;101694.16;5059332;28;45406;-75
2022/03/07 04:15:48;;;;;;;;;57.25;45.00;;;;;17.14;23.25;101706.75;5077026;27;46373;-75
2022/03/07 04:18:14;;;;;;;;;53.50;43.00;;;;;17.21;22.99;101730.91;5077837;28;45504;-75
2022/03/07 04:20:39;;;;;;;;;57.75;44.25;;;;;17.10;23.16;101702.25;5077035;28;45453;-75
2022/03/07 04:23:04;;;;;;;;;56.75;45.00;;;;;17.15;23.41;101713.88;5077750;28;45487;-75
2022/03/07 04:25:29;;;;;;;;;56.25;42.25;;;;;17.22;23.24;101738.09;5091507;27;45582;-74
2022/03/07 04:27:55;;;;;;;;;53.00;42.67;;;;;17.24;23.07;101730.94;5097708;27;45511;-75
2022/03/07 04:30:20;;;;;;;;;46.75;40.50;;;;;17.17;23.10;101727.28;5097860;27;45611;-75
2022/03/07 04:32:46;;;;;;;;;56.25;42.50;;;;;17.10;23.17;101710.28;5097544;27;45441;-81
2022/03/07 04:35:12;;;;;;;;;51.00;41.00;;;;;17.11;23.06;101732.63;5078804;27;48578;-80
2022/03/07 04:37:40;;;;;;;;;52.00;41.50;;;;;17.06;23.14;101729.00;5096623;27;45341;-81
2022/03/07 04:40:08;;;;;;;;;48.67;41.00;;;;;17.04;23.36;101718.28;5097650;27;45461;-81
2022/03/07 04:42:34;;;;;;;;;49.50;42.00;;;;;16.70;23.24;101658.13;5097321;27;45556;-81
2022/03/07 04:44:59;;;;;;;;;52.25;44.25;;;;;16.85;23.04;101678.75;5081721;27;47468;-82
2022/03/07 04:47:25;;;;;;;;;51.75;43.25;;;;;17.25;23.01;101743.47;5078875;27;45542;-80
2022/03/07 04:49:50;;;;;;;;;47.00;41.67;;;;;17.06;23.26;101718.28;5097346;27;45651;-82
2022/03/07 04:52:16;;;;;;;;;52.00;42.75;;;;;17.05;23.20;101732.59;5092326;27;46533;-84
2022/03/07 04:54:41;;;;;;;;;52.75;44.50;;;;;16.81;23.33;101697.50;5077747;27;47421;-83
2022/03/07 04:57:06;;;;;;;;;48.25;39.00;;;;;16.91;23.13;101725.31;5078988;27;45351;-84
2022/03/07 04:59:32;;;;;;;;;56.25;45.50;;;;;16.78;23.09;101686.78;5097459;27;45839;-83
2022/03/07 05:01:57;;;;;;;;;58.50;44.50;;;;;17.05;23.23;101733.47;5097505;27;45604;-85
2022/03/07 05:04:23;;;;;;;;;57.00;43.00;;;;;16.90;23.53;101728.88;5060823;28;47144;-84
2022/03/07 05:06:48;;;;;;;;;51.00;44.00;;;;;16.76;23.32;101701.03;5058194;28;45516;-82
2022/03/07 05:09:15;;;;;;;;;44.33;39.00;;;;;16.97;23.32;101740.56;5072015;27;47979;-81
2022/03/07 05:11:40;;;;;;;;;53.50;45.00;;;;;16.56;23.57;101668.72;5074939;27;45573;-82
2022/03/07 05:14:06;;;;;;;;;58.50;42.75;;;;;16.98;23.16;101753.97;5092748;27;48320;-82
2022/03/07 05:16:32;;;;;;;;;44.75;40.75;;;;;16.63;23.42;101681.28;5096634;27;45874;-81
2022/03/07 05:18:57;;;;;;;;;43.33;39.67;;;;;16.75;23.33;101721.59;5076280;27;45867;-82
2022/03/07 05:21:22;;;;;;;;;45.00;41.50;;;;;16.45;23.14;101655.22;5078368;27;45548;-83
2022/03/07 05:23:48;;;;;;;;;51.50;41.50;;;;;16.86;23.31;101720.78;5090821;27;46982;-84
2022/03/07 05:26:13;;;;;;;;;50.50;44.00;;;;;16.73;23.30;101717.97;5095902;27;45474;-83
2022/03/07 05:28:38;;;;;;;;;46.00;39.00;;;;;16.32;23.34;101658.69;5095218;27;45405;-82
2022/03/07 05:31:04;;;;;;;;;47.33;41.67;;;;;16.42;23.35;101680.19;5089175;27;45343;-82
2022/03/07 05:33:29;;;;;;;;;52.25;42.00;;;;;16.66;23.55;101723.28;5063477;28;47246;-83
2022/03/07 05:35:55;;;;;;;;;46.25;39.00;;;;;16.80;23.45;101735.91;5076386;28;45451;-83
2022/03/07 05:38:20;;;;;;;;;50.00;43.00;;;;;16.71;23.63;101701.00;5076623;28;45986;-82
2022/03/07 05:40:46;;;;;;;;;52.33;42.00;;;;;16.73;23.30;101709.94;5076264;28;45621;-82
2022/03/07 05:43:12;;;;;;;;;47.00;40.25;;;;;16.71;23.39;101703.69;5077590;27;48094;-82
2022/03/07 05:45:38;;;;;;;;;41.67;37.33;;;;;16.84;23.44;101727.91;5096792;27;45389;-82
2022/03/07 05:48:04;;;;;;;;;51.50;45.00;;;;;16.68;23.60;101697.38;5077685;27;45493;-81
2022/03/07 05:50:29;;;;;;;;;45.75;39.00;;;;;16.84;23.10;101714.53;5096779;27;45405;-82
2022/03/07 05:52:54;;;;;;;;;52.25;42.00;;;;;16.97;23.78;101741.47;5096355;27;46230;-81
2022/03/07 05:55:20;;;;;;;;;56.25;44.25;;;;;16.66;23.55;101704.53;5077835;27;46722;-83
2022/03/07 05:57:45;;;;;;;;;47.33;41.00;;;;;16.86;23.42;101752.94;5078216;27;45629;-83
2022/03/07 06:00:11;;;;;;;;;53.00;41.75;;;;;16.74;23.34;101743.91;5077957;27;45357;-84
2022/03/07 06:02:37;;;;;;;;;58.50;45.00;;;;;16.69;23.37;101740.28;5095651;27;46353;-83
2022/03/07 06:05:04;;;;;;;;;49.25;41.50;;;;;16.86;23.49;101760.97;5077188;27;45584;-82
2022/03/07 06:07:29;;;;;;;;;50.00;43.00;;;;;16.46;23.54;101703.44;5075135;27;45934;-79
2022/03/07 06:09:55;;;;;;;;;52.50;39.75;;;;;16.67;23.48;101735.81;5072645;27;45511;-82
2022/03/07 06:12:21;;;;;;;;;54.25;45.00;;;;;16.54;23.34;101699.94;5068681;27;46921;-81
2022/03/07 06:14:46;;;;;;;;;52.00;42.00;;;;;16.46;23.48;101695.41;5063121;27;46094;-82
2022/03/07 06:17:11;;;;;;;;;58.25;42.50;;;;;16.62;23.41;101739.34;5067560;27;46026;-81
2022/03/07 06:19:37;;;;;;;;;46.00;39.00;;;;;16.67;23.63;101754.56;5068569;27;45410;-81
2022/03/07 06:22:03;;;;;;;;;44.25;40.25;;;;;16.37;23.36;101697.09;5077135;27;46725;-81
2022/03/07 06:24:29;;;;;;;;;47.75;41.75;;;;;16.62;23.69;101733.06;5075729;27;45538;-80
2022/03/07 06:26:58;;;;;;;;;41.00;37.00;;;;;16.46;23.54;101711.47;5055482;27;45947;-81
2022/03/07 06:29:23;;;;;;;;;50.75;43.75;;;;;16.33;23.26;101680.13;5049744;28;45682;-82
2022/03/07 06:31:49;;;;;;;;;52.00;42.25;;;;;16.59;23.54;101725.00;5080841;27;45712;-82
2022/03/07 06:34:15;;;;;;;;;46.00;40.75;;;;;16.50;23.23;101691.00;5078012;27;45428;-83
2022/03/07 06:36:41;;;;;;;;;57.75;45.50;;;;;16.95;23.46;101771.84;5066272;27;45454;-82
2022/03/07 06:39:06;;;;;;;;;48.50;40.25;;;;;16.76;23.15;101726.06;5077245;27;45623;-80
2022/03/07 06:41:32;;;;;;;;;53.00;44.00;;;;;16.66;23.39;101701.84;5076209;27;47187;-82
2022/03/07 06:43:58;;;;;;;;;48.25;41.25;;;;;16.72;23.43;101723.34;5070130;27;45874;-82
2022/03/07 06:46:23;;;;;;;;;51.75;44.50;;;;;17.05;23.38;101771.00;5065366;27;45913;-83
2022/03/07 06:48:49;;;;;;;;;56.00;45.25;;;;;16.58;23.46;101702.69;5049184;28;45660;-82
2022/03/07 06:51:14;;;;;;;;;56.25;45.75;;;;;16.67;23.25;101711.69;5058650;27;47929;-82
2022/03/07 06:53:39;;;;;;;;;48.25;41.75;;;;;17.02;23.44;101776.34;5064873;28;45478;-83
2022/03/07 06:56:05;;;;;;;;;55.50;44.25;;;;;16.98;23.20;101762.00;5081940;27;45420;-81
2022/03/07 06:58:30;;;;;;;;;52.75;43.50;;;;;17.06;23.11;101766.53;5067388;27;45569;-81
2022/03/07 07:00:56;;;;;;;;;49.00;40.33;;;;;16.95;23.14;101764.69;5069579;27;46440;-83
2022/03/07 07:03:21;;;;;;;;;50.00;43.50;;;;;17.13;23.13;101771.97;5075260;27;45457;-81
2022/03/07 07:05:46;;;;;;;;;54.00;42.00;;;;;16.94;22.94;101733.38;5076906;27;45970;-80
2022/03/07 07:08:12;;;;;;;;;56.25;45.50;;;;;16.71;23.09;101709.03;5059513;27;46398;-81
2022/03/07 07:10:38;;;;;;;;;49.50;43.00;;;;;16.89;22.86;101775.34;5066749;27;46402;-81
2022/03/07 07:13:03;;;;;;;;;53.50;43.25;;;;;16.85;23.42;101752.06;5066433;27;45494;-80
2022/03/07 07:15:28;;;;;;;;;54.25;43.50;;;;;16.93;23.10;101755.75;5071166;27;45559;-81
2022/03/07 07:17:54;;;;;;;;;49.25;42.25;;;;;16.88;23.26;101759.22;5074754;27;45420;-79
2022/03/07 07:20:19;;;;;;;;;58.75;44.50;;;;;16.56;23.34;101708.91;5077547;27;46727;-78
2022/03/07 07:22:44;;;;;;;;;50.25;43.25;;;;;16.62;23.30;101708.94;5075451;27;45864;-78
2022/03/07 07:25:10;;;;;;;;;48.50;41.00;;;;;16.64;23.46;101726.84;5077533;27;45731;-79
2022/03/07 07:27:36;;;;;;;;;51.00;42.50;;;;;16.78;23.08;101752.88;5082877;27;46111;-78
2022/03/07 07:30:06;;;;;;;;;56.25;45.50;;;;;16.54;23.35;101710.66;5080509;27;45521;-77
2022/03/07 07:32:31;;;;;;;;;49.67;43.00;;;;;16.85;23.15;101762.78;5056832;28;45517;-80
2022/03/07 07:34:56;;;;;;;;;53.25;43.50;;;;;16.75;23.31;101745.72;5078191;27;45888;-80
2022/03/07 07:37:22;;;;;;;;;58.25;45.25;;;;;16.78;23.21;101735.00;5072309;27;45560;-80
2022/03/07 07:39:47;;;;;;;;;48.50;40.75;;;;;16.71;23.21;101725.13;5073298;27;47903;-81
2022/03/07 07:42:13;;;;;;;;;54.75;44.75;;;;;16.42;23.32;101676.63;5084062;27;45372;-82
2022/03/07 07:44:39;;;;;;;;;44.00;39.00;;;;;17.11;22.84;101781.78;5070912;27;46007;-80
2022/03/07 07:47:05;;;;;;;;;54.33;45.00;;;;;16.97;23.02;101760.25;5063604;27;46025;-79
2022/03/07 07:49:31;;;;;;;;;54.25;44.50;;;;;16.98;23.06;101759.34;5077745;27;45352;-79
2022/03/07 07:51:59;;;;;;;;;44.33;41.00;;;;;17.25;22.99;101781.91;5077277;27;46057;-80
2022/03/07 07:54:25;;;;;;;;;57.25;45.75;;;;;16.68;22.84;101705.44;5080115;27;45457;-79
2022/03/07 07:56:50;;;;;;;;;58.25;45.25;;;;;17.08;22.92;101771.03;5077882;27;45861;-79
2022/03/07 07:59:18;;;;;;;;;52.00;42.75;;;;;17.10;22.86;101773.72;5078563;27;45464;-80
2022/03/07 08:01:43;;;;;;;;;52.50;42.00;;;;;16.63;22.95;101697.34;5079423;27;45610;-79
2022/03/07 08:04:09;;;;;;;;;44.67;39.00;;;;;17.02;22.88;101741.50;5072811;27;45571;-79
2022/03/07 08:06:34;;;;;;;;;43.50;41.25;;;;;17.18;22.75;101747.88;5080879;27;45530;-78
2022/03/07 08:09:03;;;;;;;;;48.00;38.00;;;;;17.03;22.76;101727.22;5069587;27;45479;-80
2022/03/07 08:11:29;;;;;;;;;48.25;41.50;;;;;16.78;22.88;101678.72;5073527;27;45573;-78
2022/03/07 08:13:54;;;;;;;;;54.25;41.00;;;;;17.24;22.62;101777.44;5074503;27;46039;-79
2022/03/07 08:16:20;;;;;;;;;45.50;41.50;;;;;17.27;22.64;101777.47;5081242;27;46519;-78
2022/03/07 08:18:46;;;;;;;;;54.25;42.00;;;;;17.06;22.60;101719.19;5082988;27;46338;-78
2022/03/07 08:21:12;;;;;;;;;47.00;40.33;;;;;17.35;22.53;101780.19;5081237;27;45625;-79
2022/03/07 08:23:37;;;;;;;;;55.25;45.75;;;;;17.40;22.56;101777.56;5083617;27;45958;-79
2022/03/07 08:26:02;;;;;;;;;53.75;41.50;;;;;17.34;22.33;101774.81;5070304;27;46280;-80
2022/03/07 08:28:28;;;;;;;;;42.25;39.00;;;;;17.04;22.42;101718.28;5068991;27;46623;-79
2022/03/07 08:30:53;;;;;;;;;49.00;42.00;;;;;17.23;22.34;101746.13;5066560;27;46093;-79
2022/03/07 08:33:19;;;;;;;;;48.00;39.00;;;;;17.43;22.36;101765.03;5082247;27;45691;-80
2022/03/07 08:35:44;;;;;;;;;51.75;43.00;;;;;17.48;22.22;101765.06;5078972;27;45686;-80
2022/03/07 08:38:10;;;;;;;;;44.00;39.33;;;;;17.46;22.25;101757.00;5076736;27;48328;-80
2022/03/07 08:40:35;;;;;;;;;50.67;40.00;;;;;17.33;22.31;101749.78;5071263;27;45792;-79
2022/03/07 08:43:01;;;;;;;;;49.33;41.33;;;;;17.31;22.24;101754.22;5076692;27;45683;-80
2022/03/07 08:45:26;;;;;;;;;54.25;42.75;;;;;17.19;22.32;101717.50;5088713;27;45493;-81
2022/03/07 08:47:52;;;;;;;;;51.75;42.75;;;;;17.25;22.23;101696.06;5084286;27;46643;-83
2022/03/07 08:50:18;;;;;;;;;53.67;42.00;;;;;17.30;22.16;101709.53;5081578;27;46190;-85
2022/03/07 08:52:47;;;;;;;;;52.33;43.00;;;;;17.59;22.07;101752.59;5074520;27;45439;-80
2022/03/07 08:55:13;;;;;;;;;45.67;40.00;;;;;17.42;21.92;101690.81;5073911;27;45399;-81
2022/03/07 08:57:39;;;;;;;;;47.00;43.00;;;;;17.62;21.86;101714.16;5077001;27;45502;-81
2022/03/07 09:00:10;;;;;;;;;48.67;42.67;;;;;17.84;21.89;101747.38;5068154;27;45982;-82
2022/03/07 09:02:36;;;;;;;;;41.25;38.25;;;;;17.81;21.41;101745.59;5059410;28;45375;-82
2022/03/07 09:05:02;;;;;;;;;49.00;39.00;;;;;17.79;21.43;101722.31;5081881;27;45899;-82
2022/03/07 09:07:28;;;;;;;;;44.25;40.50;;;;;17.93;21.52;101720.63;5076708;27;46839;-81
2022/03/07 09:09:55;;;;;;;;;55.25;42.50;;;;;17.91;21.34;101721.50;5068158;27;45985;-83
2022/03/07 09:12:22;;;;;;;;;54.75;42.25;;;;;17.77;21.12;101679.34;5066667;27;45872;-84
2022/03/07 09:14:48;;;;;;;;;49.33;41.33;;;;;18.12;21.21;101732.31;5069303;27;45934;-81
2022/03/07 09:17:13;;;;;;;;;46.75;38.50;;;;;17.73;21.17;101674.84;5076503;27;46283;-84
2022/03/07 09:19:39;;;;;;;;;50.00;39.00;;;;;18.23;20.75;101739.53;5068912;27;46051;-82
2022/03/07 09:22:04;;;;;;;;;44.67;38.67;;;;;18.15;21.06;101713.53;5080035;27;45524;-82
2022/03/07 09:24:29;;;;;;;;;50.33;40.67;;;;;18.34;21.14;101745.84;5076636;27;45923;-83
2022/03/07 09:26:55;;;;;;;;;46.00;40.00;;;;;18.17;20.79;101709.06;5076257;27;46149;-83
2022/03/07 09:29:20;;;;;;;;;42.00;38.33;;;;;18.01;20.45;101696.47;5077706;27;45520;-84
2022/03/07 09:31:45;;;;;;;;;42.67;38.00;;;;;18.07;20.65;101709.94;5075863;27;45448;-83
2022/03/07 09:34:12;;;;;;;;;39.00;37.67;;;;;17.94;20.34;101702.72;5067208;27;45455;-84
2022/03/07 09:36:38;;;;;;;;;40.67;36.67;;;;;17.96;20.42;101691.09;5074876;27;46388;-84
2022/03/07 09:39:05;;;;;;;;;38.33;36.67;;;;;17.90;20.16;101674.03;5083045;27;45542;-85
2022/03/07 09:41:30;;;;;;;;;39.67;37.33;;;;;17.95;20.03;101675.00;5066662;27;45363;-85
2022/03/07 09:43:55;;;;;;;;;43.33;36.67;;;;;18.01;20.40;101666.94;5063542;28;45425;-85
2022/03/07 09:46:21;;;;;;;;;46.00;39.67;;;;;18.33;20.18;101731.47;5086705;27;45630;-84
2022/03/07 09:48:47;;;;;;;;;36.33;32.67;;;;;18.17;20.16;101690.28;5073488;27;45946;-85
2022/03/07 09:51:12;;;;;;;;;36.67;36.33;;;;;18.34;20.24;101700.16;5079332;27;45458;-84
2022/03/07 09:53:37;;;;;;;;;45.33;36.33;;;;;18.20;19.90;101669.66;5075162;27;45516;-87
2022/03/07 09:56:03;;;;;;;;;44.50;39.25;;;;;17.98;20.07;101607.88;5065367;27;48004;-86
2022/03/07 09:58:29;;;;;;;;;40.00;34.00;;;;;18.26;20.11;101637.47;5060576;27;45828;-88
2022/03/07 10:01:09;;;;;;;;;37.00;35.00;;;;;18.22;20.04;101646.41;5072200;27;45477;-86
2022/03/07 10:03:34;;;;;;;;;39.33;38.00;;;;;18.56;19.74;101700.19;5072168;27;45348;-86
2022/03/07 10:06:00;;;;;;;;;35.67;33.00;;;;;18.61;19.48;101703.78;5071099;27;47371;-85
2022/03/07 10:08:28;;;;;;;;;37.67;30.67;;;;;18.50;19.48;101661.66;5079289;27;45990;-86
2022/03/07 10:10:55;;;;;;;;;35.67;32.67;;;;;18.55;19.24;101663.44;5080760;27;45445;-87
2022/03/07 10:13:22;;;;;;;;;36.33;34.00;;;;;18.43;19.28;101642.84;5070094;27;45619;-86
2022/03/07 10:15:59;;;;;;;;;37.33;35.00;;;;;18.83;19.63;101700.19;5061880;27;47601;-82
2022/03/07 10:18:28;;;;;;;;;37.00;32.00;;;;;18.76;19.13;101703.78;5068345;27;45720;-83
2022/03/07 10:20:57;;;;;;;;;33.00;29.00;;;;;18.84;19.33;101718.09;5070300;27;45625;-86
2022/03/07 10:23:25;;;;;;;;;41.33;31.33;;;;;18.69;18.84;101686.75;5075430;27;45703;-84
2022/03/07 10:25:51;;;;;;;;;30.67;30.00;;;;;18.36;19.16;101633.88;5069431;27;45904;-80
2022/03/07 10:28:17;;;;;;;;;43.67;37.67;;;;;18.75;18.95;101664.34;5067116;27;45528;-83
2022/03/07 10:30:42;;;;;;;;;42.33;36.67;;;;;18.63;18.88;101661.66;5057687;27;45484;-81
2022/03/07 10:33:10;;;;;;;;;37.33;34.33;;;;;18.72;18.97;101668.81;5080674;27;45683;-81
2022/03/07 10:35:41;;;;;;;;;40.33;37.00;;;;;18.91;19.23;101672.44;5059654;27;48147;-81
2022/03/07 10:38:10;;;;;;;;;32.67;29.00;;;;;19.16;18.92;101702.91;5065732;27;45758;-79
2022/03/07 10:40:39;;;;;;;;;35.67;34.00;;;;;18.91;18.90;101650.94;5082958;27;45465;-84
2022/03/07 10:43:05;;;;;;;;;29.00;28.33;;;;;19.03;18.91;101675.13;5061619;27;45744;-82
2022/03/07 10:45:42;;;;;;;;;38.33;36.67;;;;;19.21;18.79;101703.75;5068259;27;48646;-80
2022/03/07 10:48:08;;;;;;;;;38.00;32.67;;;;;19.13;18.75;101684.09;5079160;27;45820;-79
2022/03/07 10:50:33;;;;;;;;;46.00;35.67;;;;;19.06;18.69;101647.31;5069112;27;46096;-83
2022/03/07 10:53:05;;;;;;;;;39.33;33.33;;;;;19.03;18.64;101629.41;5074190;27;45525;-78
2022/03/07 10:55:31;;;;;;;;;38.00;34.00;;;;;19.24;18.84;101659.81;5085235;27;45463;-79
2022/03/07 10:58:08;;;;;;;;;43.67;37.00;;;;;19.18;18.60;101658.97;5066333;27;45906;-79
2022/03/07 11:00:47;;;;;;;;;39.00;30.00;;;;;19.23;18.50;101679.56;5082804;27;45780;-79
2022/03/07 11:03:20;;;;;;;;;35.00;26.33;;;;;19.36;18.64;101692.97;5070514;27;45616;-78
2022/03/07 11:05:47;;;;;;;;;37.00;35.33;;;;;18.98;18.66;101609.69;5070781;27;46395;-77